Latest Coastal Weather Observations for Bedout Island

IDW60701

Issued at 9:53 pm WST Monday 4 May 2026 (issued every 10 minutes, with the page automatically refreshed every 10 minutes)

About coastal observations | Map of coastal stations | Coastal observations for WA | Marine services | Other Formats
Station Details ID: 004100 Name: BEDOUT ISLAND Lat: -19.59 Lon: 119.10 Height: 8.6 m
Data from the previous 72 hours. | See also: Recent months at Bedout Island
Date/Time
WST
Wind Sea
Height
m
Swell Vis
km
Cloud Weather Temp
°C
Press
MSL
hPa
Rain since
9am
mm
Dir  Spd
kts
Gust
kts
Height
m
Period
s
Dir
04/09:30pm ESE 22 26 - - - - - - - 28.4 1015.4 -
04/09:00pm ESE 21 24 - - - - - - - 28.3 1015.5 -
04/08:30pm ESE 20 25 - - - - - - - 28.2 1015.5 -
04/08:00pm SE 18 21 - - - - - - - 28.3 1015.1 -
04/07:30pm ESE 10 15 - - - - - - - 27.6 1014.9 -
04/07:00pm ESE 8 9 - - - - - - - 26.7 1014.6 -
04/06:30pm ESE 9 10 - - - - - - - 27.3 1014.2 -
04/06:00pm E 9 10 - - - - - - - 27.5 1014.0 -
04/05:30pm E 9 10 - - - - - - - 27.9 1013.8 -
04/05:00pm E 10 12 - - - - - - - 28.4 1013.6 -
04/04:30pm ESE 10 13 - - - - - - - 28.8 1013.4 -
04/04:00pm ESE 12 14 - - - - - - - 29.2 1013.3 -
04/03:30pm ESE 13 15 - - - - - - - 29.4 1013.5 -
04/03:00pm ESE 15 17 - - - - - - - 29.6 1013.7 -
04/02:30pm ESE 16 19 - - - - - - - 29.6 1013.8 -
04/02:00pm SE 17 21 - - - - - - - 29.2 1013.9 -
04/01:30pm ESE 17 20 - - - - - - - 29.1 1014.4 -
04/01:00pm ESE 18 22 - - - - - - - 28.8 1014.9 -
04/12:30pm ESE 19 23 - - - - - - - 28.5 1015.4 -
04/12:00pm SE 18 22 - - - - - - - 28.2 1015.9 -
04/11:30am ESE 20 25 - - - - - - - 27.8 1016.2 -
04/11:00am ESE 21 25 - - - - - - - 27.5 1016.6 -
04/10:30am ESE 21 26 - - - - - - - 27.2 1016.9 -
04/10:00am ESE 23 27 - - - - - - - 26.6 1016.9 -
04/09:30am ESE 24 28 - - - - - - - 26.4 1016.9 -
04/09:00am ESE 25 29 - - - - - - - 26.0 1016.8 -
04/08:30am ESE 26 30 - - - - - - - 25.6 1016.4 -
04/08:00am ESE 26 30 - - - - - - - 25.4 1016.4 -
04/07:30am ESE 26 30 - - - - - - - 25.1 1016.1 -
04/07:00am ESE 25 31 - - - - - - - 25.1 1016.0 -
04/06:30am ESE 25 30 - - - - - - - 25.0 1015.6 -
04/06:00am ESE 25 29 - - - - - - - 25.2 1015.2 -
04/05:30am ESE 26 30 - - - - - - - 25.4 1014.8 -
04/05:00am ESE 25 30 - - - - - - - 25.6 1014.7 -
04/04:30am ESE 26 31 - - - - - - - 25.8 1014.5 -
04/04:00am ESE 25 29 - - - - - - - 26.0 1014.4 -
04/03:30am ESE 25 29 - - - - - - - 26.2 1014.5 -
04/03:00am ESE 25 31 - - - - - - - 26.6 1014.4 -
04/02:30am ESE 26 30 - - - - - - - 26.8 1014.4 -
04/02:00am ESE 25 28 - - - - - - - 27.1 1014.3 -
04/01:30am ESE 25 29 - - - - - - - 27.4 1014.4 -
04/01:00am ESE 25 29 - - - - - - - 27.7 1014.5 -
04/12:30am ESE 23 26 - - - - - - - 27.9 1014.6 -
04/12:00am ESE 22 25 - - - - - - - 28.1 1014.7 -
 
Date/Time
WST
Wind Sea
Height
m
Swell Vis
km
Cloud Weather Temp
°C
Press
MSL
hPa
Rain since
9am
mm
Dir  Spd
kts
Gust
kts
Height
m
Period
s
Dir
03/11:30pm ESE 20 24 - - - - - - - 28.4 1014.8 -
03/11:00pm ESE 17 21 - - - - - - - 28.5 1014.8 -
03/10:59pm ESE 16 21 - - - - - - - 28.5 1014.8 -
03/10:30pm ESE 9 11 - - - - - - - 27.7 1014.9 -
03/10:00pm ESE 5 6 - - - - - - - 26.8 1014.9 -
03/09:30pm ESE 4 5 - - - - - - - 26.6 1014.7 -
03/09:00pm E 4 6 - - - - - - - 26.6 1014.6 -
03/08:30pm E 5 5 - - - - - - - 26.1 1014.3 -
03/08:00pm ENE 5 6 - - - - - - - 26.1 1014.1 -
03/07:30pm ENE 6 7 - - - - - - - 26.6 1013.6 -
03/07:00pm NE 8 9 - - - - - - - 26.8 1013.2 -
03/06:30pm NE 8 10 - - - - - - - 26.9 1012.9 -
03/06:00pm ENE 7 9 - - - - - - - 27.3 1012.6 -
03/05:30pm ENE 7 9 - - - - - - - 27.6 1012.4 -
03/05:00pm ENE 8 10 - - - - - - - 28.3 1012.1 -
03/04:30pm ENE 8 9 - - - - - - - 28.8 1012.1 -
03/04:00pm E 10 11 - - - - - - - 29.1 1011.9 -
03/03:30pm E 10 12 - - - - - - - 29.2 1011.9 -
03/03:00pm ESE 12 13 - - - - - - - 29.3 1011.9 -
03/02:30pm ESE 12 14 - - - - - - - 29.4 1012.2 -
03/02:00pm ESE 14 16 - - - - - - - 29.2 1012.5 -
03/01:30pm ESE 15 17 - - - - - - - 29.0 1012.8 -
03/01:00pm ESE 15 18 - - - - - - - 28.7 1013.3 -
03/12:30pm ESE 17 20 - - - - - - - 28.5 1013.7 -
03/12:00pm ESE 18 21 - - - - - - - 28.0 1014.1 -
03/11:30am ESE 19 23 - - - - - - - 27.5 1014.5 -
03/11:00am ESE 20 23 - - - - - - - 27.1 1015.1 -
03/10:30am ESE 22 27 - - - - - - - 26.9 1015.4 -
03/10:00am ESE 22 27 - - - - - - - 26.5 1015.7 -
03/09:30am ESE 23 28 - - - - - - - 26.2 1015.8 -
03/09:00am ESE 25 29 - - - - - - - 25.9 1015.6 -
03/08:30am ESE 23 28 - - - - - - - 25.6 1015.5 -
03/08:00am ESE 23 27 - - - - - - - 25.3 1015.2 -
03/07:30am ESE 22 27 - - - - - - - 24.8 1015.0 -
03/07:00am ESE 22 25 - - - - - - - 24.5 1014.5 -
03/06:30am ESE 21 26 - - - - - - - 24.5 1014.2 -
03/06:00am ESE 21 26 - - - - - - - 24.7 1013.8 -
03/05:30am ESE 21 26 - - - - - - - 25.1 1013.5 -
03/05:00am ESE 20 24 - - - - - - - 25.4 1013.1 -
03/04:30am ESE 21 25 - - - - - - - 25.6 1012.8 -
03/04:00am E 22 25 - - - - - - - 25.9 - -
03/03:30am E 20 23 - - - - - - - 26.1 - -
03/03:00am ESE 20 23 - - - - - - - 26.4 - -
03/02:30am ESE 20 23 - - - - - - - 26.6 - -
03/02:00am ESE 20 23 - - - - - - - 26.9 - -
03/01:30am ESE 19 22 - - - - - - - 27.2 - -
03/01:00am ESE 18 21 - - - - - - - 27.4 - -
03/12:30am ESE 16 19 - - - - - - - 27.5 - -
03/12:00am ESE 15 17 - - - - - - - 27.8 - -
 
Date/Time
WST
Wind Sea
Height
m
Swell Vis
km
Cloud Weather Temp
°C
Press
MSL
hPa
Rain since
9am
mm
Dir  Spd
kts
Gust
kts
Height
m
Period
s
Dir
02/11:30pm ESE 16 18 - - - - - - - 28.1 - -
02/11:00pm ESE 16 18 - - - - - - - 28.5 - -
02/10:30pm SE 7 9 - - - - - - - 27.7 - -
02/10:00pm CALM 0 8 - - - - - - - 26.6 - -
02/09:30pm CALM 0 4 - - - - - - - 27.1 - -
02/09:00pm SSE 1 6 - - - - - - - 26.8 1013.1 -
02/08:30pm NNW 6 8 - - - - - - - 27.0 1012.6 -
02/08:00pm N 5 6 - - - - - - - 26.9 1012.1 -
02/07:30pm N 5 6 - - - - - - - 26.9 1011.8 -
02/07:00pm NNW 3 4 - - - - - - - 26.8 1011.4 -
02/06:30pm N 4 5 - - - - - - - 27.0 1010.9 -
02/06:00pm N 4 5 - - - - - - - 27.2 1010.7 -
02/05:30pm NE 4 4 - - - - - - - 28.0 1010.3 -
02/05:00pm NE 3 4 - - - - - - - 29.4 1010.3 -
02/04:30pm NE 4 5 - - - - - - - 30.2 1010.0 -
02/04:00pm ENE 3 5 - - - - - - - 30.5 1010.0 -
02/03:30pm E 4 5 - - - - - - - 30.4 1010.1 -
02/03:00pm ENE 4 6 - - - - - - - 30.4 1010.1 -
02/02:30pm E 6 9 - - - - - - - 30.7 1010.5 -
02/02:00pm ESE 5 7 - - - - - - - 31.4 1010.7 -
02/01:30pm SE 6 8 - - - - - - - 30.7 1010.8 -
02/01:00pm ESE 4 5 - - - - - - - 30.9 1011.2 -
02/12:30pm SE 4 5 - - - - - - - 30.6 1011.4 -
02/12:00pm SE 5 7 - - - - - - - 31.0 - -
02/11:30am SSE 4 6 - - - - - - - 30.5 - -
02/11:00am SE 6 8 - - - - - - - 30.3 1012.5 -
02/10:30am SE 7 9 - - - - - - - 30.6 1012.8 -
02/10:00am SE 8 9 - - - - - - - 30.2 1013.1 -
02/09:30am SE 6 15 - - - - - - - 29.7 1013.2 -
02/09:00am SSE 8 9 - - - - - - - 29.1 1013.2 -
02/08:30am SSE 8 10 - - - - - - - 28.2 1012.9 -
02/08:00am S 4 6 - - - - - - - 28.9 1012.5 -
02/07:30am WSW 5 7 - - - - - - - 27.9 1012.1 -
02/07:00am WSW 6 7 - - - - - - - 27.0 1011.8 -
02/06:30am WSW 6 8 - - - - - - - 26.6 1011.4 -
02/06:00am WSW 7 9 - - - - - - - 26.7 1011.2 -
02/05:30am W 8 9 - - - - - - - 26.7 1010.9 -
02/05:00am WNW 9 11 - - - - - - - 26.9 1010.9 -
02/04:30am WNW 9 12 - - - - - - - 27.0 1010.6 -
02/04:00am WNW 9 11 - - - - - - - 27.0 1010.4 -
02/03:30am W 9 11 - - - - - - - 27.2 1010.4 -
02/03:00am WNW 10 12 - - - - - - - 27.2 1010.4 -
02/02:30am WNW 10 12 - - - - - - - 27.2 1010.5 -
02/02:00am WNW 9 11 - - - - - - - 27.1 1010.7 -
02/01:30am WNW 9 11 - - - - - - - 27.1 1010.9 -
02/01:00am WNW 9 11 - - - - - - - 27.1 1011.0 -
02/12:30am WNW 10 12 - - - - - - - 27.3 1011.3 -
02/12:00am WNW 10 12 - - - - - - - 27.3 1011.6 -
 
Date/Time
WST
Wind Sea
Height
m
Swell Vis
km
Cloud Weather Temp
°C
Press
MSL
hPa
Rain since
9am
mm
Dir  Spd
kts
Gust
kts
Height
m
Period
s
Dir
01/11:30pm WNW 11 13 - - - - - - - 27.3 1011.7 -
01/11:00pm WNW 10 12 - - - - - - - 27.3 1011.7 -
01/10:30pm WNW 11 12 - - - - - - - 27.4 1011.9 -
01/10:00pm NW 11 12 - - - - - - - 27.4 - -

Other formats

Comma delimited format used in spreadsheet applications
http://www.bom.gov.au/fwo/IDW60701/IDW60701.94310.axf

JavaScript Object Notation format (JSON) in row-major order
http://www.bom.gov.au/fwo/IDW60701/IDW60701.94310.json

Data quality

Most of these data are generated automatically and are frequently updated. Quality checks on data are not normally performed. It is possible for incorrect values to appear. Refer to information at About Latest Weather Observations and please check the disclaimer before using these data.